Pagrindinis puslapis
METAR-TAF:

METAR-TAF

Oro uostai :

Pnompenis, Kambodža

platuma: 11-33N, ilguma: 104-51E, Aukštis: 10 m

Dabartinis oras

Ataskaita buvo paskelbta 23 minutes, ne 04:30 UTC
Vėjas 7 kt iš Pietų/Pietryčių, svyruoja nuo Rytų/Pietryčių ir Pietų/Pietvakarių
Temperatūra 31°C
Drėgmė 63%
Slėgis 1012 hPa
Matomumas 10 km arba daugiau
Išsisklaidę debesys ne aukštis 1700 ft

METAR: VDPP 020430Z 15007KT 110V210 9999 SCT017 31/23 Q1012

Laikas: 11:53 (04:53 UTC)

Prognozė

Ataskaita buvo paskelbta 5 valandos ir 53 minutes, ne 23:00 UTC
Prognozė galioja nuo 02 metu 00 UTC su 02 metu 18 UTC
Vėjas 8 kt iš Pietų
Matomumas 10 km arba daugiau
Išsisklaidę debesys ne aukštis 1700 ft
Išsisklaidę debesys ne aukštis 4000 ft
Laikinai
nuo 02 metu 06 UTC su 02 metu 11 UTC
Išsisklaidę debesys ne aukštis 1500 ft
Mažai debesys ne aukštis 1700 ft, Liūtiniai kamuoliniai debesys.
Išsisklaidę debesys ne aukštis 4000 ft

TAF: VDPP 012300Z 0200/0218 19008KT 9999 SCT017 SCT040 TEMPO 0206/0211 SCT015 FEW017CB SCT040

Orai ataskaitas ir orų prognozės (METAR, TAF).

turimą stotys yra geltonos ir raudonos taškus žemėlapyje.

Perkelti pele per norėdami pamatyti stoties vardą.

Tada spustelėkite, norėdami matyti oro stebėjimo ir prognozės.

Norėdami pakeisti žemėlapį: spustelėkite ant žalios mygtukų su juodo kryžiaus žemyn,; žalią mygtuką su brūkšneliu, jei norite nutolinti; arba žalių rodyklių gretimoms žemėlapius.


METAR-TAF: